createdAt,value
2024-04-18T00:01:36.251Z,1.20
2024-04-18T00:04:03.332Z,1.10
2024-04-18T00:06:30.995Z,1.15
2024-04-18T00:08:58.221Z,1.13
2024-04-18T00:11:25.302Z,1.20
2024-04-18T00:13:52.340Z,0.93
2024-04-18T00:16:19.265Z,1.15
2024-04-18T00:18:46.287Z,1.23
2024-04-18T00:21:13.302Z,1.10
2024-04-18T00:23:40.232Z,1.20
2024-04-18T00:26:08.570Z,1.05
2024-04-18T00:28:35.516Z,1.27
2024-04-18T00:31:02.496Z,1.30
2024-04-18T00:33:29.639Z,1.45
2024-04-18T00:35:56.573Z,1.27
2024-04-18T00:38:23.809Z,1.70
2024-04-18T00:40:50.775Z,1.25
2024-04-18T00:43:20.258Z,1.10
2024-04-18T00:45:47.773Z,1.08
2024-04-18T00:48:15.065Z,1.30
2024-04-18T00:50:42.616Z,1.20
2024-04-18T00:53:10.489Z,1.27
2024-04-18T00:55:39.439Z,1.20
2024-04-18T00:58:06.394Z,1.35
2024-04-18T01:00:33.371Z,1.38
2024-04-18T01:03:00.423Z,1.40
2024-04-18T01:05:27.676Z,1.50
2024-04-18T01:07:54.614Z,1.60
2024-04-18T01:10:21.700Z,1.80
2024-04-18T01:12:59.031Z,1.67
2024-04-18T01:15:27.513Z,1.90
2024-04-18T01:17:55.395Z,2.30
2024-04-18T01:20:24.389Z,2.33
2024-04-18T01:22:51.859Z,3.03
2024-04-18T01:25:19.019Z,2.75
2024-04-18T01:27:46.025Z,3.35
2024-04-18T01:30:13.032Z,3.50
2024-04-18T01:32:40.042Z,2.80
2024-04-18T01:35:08.867Z,2.40
2024-04-18T01:37:35.815Z,2.20
2024-04-18T01:40:02.846Z,2.40
2024-04-18T01:42:29.812Z,2.25
2024-04-18T01:44:56.745Z,2.47
2024-04-18T01:47:23.807Z,2.28
2024-04-18T01:49:50.891Z,1.92
2024-04-18T01:52:17.891Z,2.13
2024-04-18T01:54:44.935Z,2.17
2024-04-18T01:57:11.941Z,2.10
2024-04-18T01:59:38.884Z,2.35
2024-04-18T02:02:05.795Z,2.50
2024-04-18T02:04:32.862Z,2.20
2024-04-18T02:07:00.088Z,2.42
2024-04-18T02:09:27.323Z,1.90
2024-04-18T02:11:54.244Z,2.20
2024-04-18T02:14:21.317Z,2.13
2024-04-18T02:16:48.300Z,2.28
2024-04-18T02:19:15.258Z,2.03
2024-04-18T02:21:42.212Z,1.90
2024-04-18T02:24:09.227Z,1.80
2024-04-18T02:26:36.812Z,1.85
2024-04-18T02:29:04.375Z,1.80
2024-04-18T02:31:31.328Z,1.70
2024-04-18T02:33:58.304Z,2.00
2024-04-18T02:36:25.620Z,2.00
2024-04-18T02:38:53.354Z,1.90
2024-04-18T02:41:20.479Z,2.03
2024-04-18T02:43:49.555Z,1.90
2024-04-18T02:46:16.464Z,2.20
2024-04-18T02:48:43.378Z,2.42
2024-04-18T02:51:10.486Z,2.70
2024-04-18T02:53:37.399Z,3.10
2024-04-18T02:56:04.732Z,3.50
2024-04-18T02:58:31.964Z,3.42
2024-04-18T03:01:06.098Z,3.10
2024-04-18T03:03:33.169Z,3.00
2024-04-18T03:06:04.430Z,2.70
2024-04-18T03:08:32.135Z,2.85
2024-04-18T03:10:59.055Z,3.25
2024-04-18T03:13:26.135Z,3.50
2024-04-18T03:15:53.114Z,3.50
2024-04-18T03:18:20.163Z,3.35
2024-04-18T03:20:54.352Z,3.00
2024-04-18T03:23:21.395Z,2.85
2024-04-18T03:25:49.046Z,2.83
2024-04-18T03:28:16.213Z,2.80
2024-04-18T03:30:43.376Z,2.92
2024-04-18T03:33:10.532Z,2.80
2024-04-18T03:35:41.358Z,2.83
2024-04-18T03:38:08.414Z,2.70
2024-04-18T03:40:36.189Z,3.22
2024-04-18T03:43:03.813Z,2.90
2024-04-18T03:45:30.993Z,3.08
2024-04-18T03:47:58.204Z,3.10
2024-04-18T03:50:25.238Z,3.00
2024-04-18T03:52:52.148Z,3.30
2024-04-18T03:55:19.274Z,3.20
2024-04-18T03:57:46.428Z,3.08
2024-04-18T04:00:14.061Z,2.70
2024-04-18T04:02:41.158Z,3.20
2024-04-18T04:05:08.111Z,3.22
2024-04-18T04:07:35.036Z,33.42
2024-04-18T04:10:02.019Z,7.00
2024-04-18T04:12:29.051Z,3.97
2024-04-18T04:14:56.019Z,3.35
2024-04-18T04:17:23.739Z,3.30
2024-04-18T04:19:50.851Z,3.33
2024-04-18T04:22:18.110Z,3.97
2024-04-18T04:24:45.111Z,3.65
2024-04-18T04:27:12.057Z,3.85
2024-04-18T04:29:38.996Z,3.60
2024-04-18T04:32:05.991Z,3.67
2024-04-18T04:34:32.979Z,3.10
2024-04-18T04:36:59.912Z,3.20
2024-04-18T04:39:27.320Z,3.15
2024-04-18T04:41:54.310Z,3.08
2024-04-18T04:44:21.318Z,2.70
2024-04-18T04:46:48.570Z,2.50
2024-04-18T04:49:16.068Z,2.83
2024-04-18T04:51:43.036Z,2.70
2024-04-18T04:54:10.897Z,2.75
2024-04-18T04:56:37.830Z,2.45
2024-04-18T04:59:05.193Z,3.05
2024-04-18T05:01:32.180Z,3.30
2024-04-18T05:03:59.278Z,3.92
2024-04-18T05:06:27.058Z,4.30
2024-04-18T05:08:54.010Z,4.70
2024-04-18T05:11:21.031Z,4.57
2024-04-18T05:13:48.017Z,4.72
2024-04-18T05:16:15.021Z,4.25
2024-04-18T05:18:42.510Z,3.90
2024-04-18T05:21:09.455Z,3.50
2024-04-18T05:23:36.354Z,3.42
2024-04-18T05:26:03.286Z,3.38
2024-04-18T05:28:42.327Z,3.63
2024-04-18T05:31:09.723Z,3.30
2024-04-18T05:33:36.901Z,3.40
2024-04-18T05:36:06.474Z,3.28
2024-04-18T05:38:33.458Z,3.42
2024-04-18T05:41:00.408Z,3.40
2024-04-18T05:43:28.109Z,3.35
2024-04-18T05:45:55.668Z,3.17
2024-04-18T05:48:22.696Z,3.70
2024-04-18T05:50:49.904Z,3.90
2024-04-18T05:53:16.841Z,4.25
2024-04-18T05:55:43.812Z,4.53
2024-04-18T05:58:10.799Z,4.00
2024-04-18T06:00:37.779Z,4.22
2024-04-18T06:03:05.904Z,3.92
2024-04-18T06:05:32.955Z,4.72
2024-04-18T06:07:59.910Z,5.32
2024-04-18T06:10:26.968Z,4.55
2024-04-18T06:12:54.045Z,4.38
2024-04-18T06:15:21.136Z,4.30
2024-04-18T06:17:48.108Z,4.28
2024-04-18T06:20:15.165Z,3.90
2024-04-18T06:22:42.103Z,3.70
2024-04-18T06:25:09.311Z,3.53
2024-04-18T06:27:36.292Z,4.18
2024-04-18T06:30:03.436Z,4.43
2024-04-18T06:32:30.502Z,5.13
2024-04-18T06:34:57.468Z,4.63
2024-04-18T06:37:24.385Z,4.93
2024-04-18T06:39:51.503Z,4.97
2024-04-18T06:42:18.767Z,4.47
2024-04-18T06:44:45.709Z,4.70
2024-04-18T06:47:12.677Z,4.28
2024-04-18T06:49:39.698Z,4.80
2024-04-18T06:52:06.810Z,4.68
2024-04-18T06:54:34.510Z,4.70
2024-04-18T06:57:01.879Z,4.30
2024-04-18T06:59:29.129Z,4.53
2024-04-18T07:01:56.085Z,4.60
2024-04-18T07:04:23.183Z,4.50
2024-04-18T07:06:50.333Z,4.70
2024-04-18T07:09:17.315Z,4.68
2024-04-18T07:11:44.486Z,4.65
2024-04-18T07:14:11.524Z,4.97
2024-04-18T07:16:38.465Z,5.72
2024-04-18T07:19:05.483Z,4.90
2024-04-18T07:21:32.433Z,5.30
2024-04-18T07:24:01.771Z,5.68
2024-04-18T07:26:29.018Z,4.80
2024-04-18T07:28:56.522Z,4.68
2024-04-18T07:31:23.515Z,4.55
2024-04-18T07:33:50.572Z,4.63
2024-04-18T07:36:22.542Z,4.55
2024-04-18T07:38:50.485Z,4.10
2024-04-18T07:41:18.368Z,3.50
2024-04-18T07:43:45.323Z,4.00
2024-04-18T07:46:14.220Z,4.07
2024-04-18T07:48:41.795Z,4.88
2024-04-18T07:51:08.916Z,8.00
2024-04-18T07:53:36.022Z,9.18
2024-04-18T07:56:05.716Z,8.38
2024-04-18T07:58:33.389Z,7.30
2024-04-18T08:01:02.190Z,6.82
2024-04-18T08:03:31.646Z,10.27
2024-04-18T08:06:02.207Z,6.93
2024-04-18T08:08:35.173Z,5.68
2024-04-18T08:11:25.963Z,6.45
2024-04-18T08:13:55.303Z,13.35
2024-04-18T08:16:24.973Z,11.05
2024-04-18T08:18:52.130Z,10.23
2024-04-18T08:21:19.187Z,8.25
2024-04-18T08:23:52.671Z,7.32
2024-04-18T08:26:19.730Z,7.20
2024-04-18T08:28:46.656Z,9.85
2024-04-18T08:31:13.646Z,9.77
2024-04-18T08:33:46.729Z,7.20
2024-04-18T08:36:17.931Z,6.53
2024-04-18T08:38:44.896Z,6.80
2024-04-18T08:41:14.272Z,8.57
2024-04-18T08:43:43.573Z,13.55
2024-04-18T08:46:11.948Z,10.02
2024-04-18T08:48:39.824Z,10.23
2024-04-18T08:51:08.926Z,12.43
2024-04-18T08:53:35.966Z,12.57
2024-04-18T08:56:07.296Z,8.07
2024-04-18T08:58:34.663Z,7.82
2024-04-18T09:01:01.994Z,5.72
2024-04-18T09:03:32.469Z,10.45
2024-04-18T09:05:59.618Z,6.13
2024-04-18T09:08:26.699Z,4.68
2024-04-18T09:10:53.819Z,4.75
2024-04-18T09:13:21.845Z,7.45
2024-04-18T09:15:49.473Z,6.57
2024-04-18T09:18:16.627Z,6.78
2024-04-18T09:20:44.722Z,4.13
2024-04-18T09:23:11.665Z,4.30
2024-04-18T09:25:40.473Z,4.50
2024-04-18T09:28:08.953Z,3.90
2024-04-18T09:30:39.374Z,4.22
2024-04-18T09:33:07.719Z,3.70
2024-04-18T09:35:36.731Z,3.13
2024-04-18T09:38:10.145Z,3.30
2024-04-18T09:40:42.379Z,4.60
2024-04-18T09:43:27.909Z,3.33
2024-04-18T09:46:10.762Z,3.97
2024-04-18T09:48:38.472Z,4.15
2024-04-18T09:51:07.824Z,5.45
2024-04-18T09:53:36.469Z,5.00
2024-04-18T09:56:04.815Z,4.00
2024-04-18T09:58:33.287Z,4.65
2024-04-18T10:01:00.418Z,4.07
2024-04-18T10:03:29.384Z,4.18
2024-04-18T10:06:02.127Z,4.80
2024-04-18T10:08:34.739Z,7.90
2024-04-18T10:11:02.220Z,4.75
2024-04-18T10:13:29.835Z,7.22
2024-04-18T10:16:14.038Z,5.68
2024-04-18T10:18:42.968Z,6.70
2024-04-18T10:21:28.598Z,5.30
2024-04-18T10:24:06.440Z,7.55
2024-04-18T10:26:36.635Z,6.43
2024-04-18T10:29:03.678Z,6.10
2024-04-18T10:31:31.072Z,6.72
2024-04-18T10:33:58.851Z,6.30
2024-04-18T10:36:27.377Z,6.50
2024-04-18T10:38:54.754Z,5.45
2024-04-18T10:41:26.206Z,4.10
2024-04-18T10:43:55.305Z,3.33
2024-04-18T10:46:23.428Z,3.50
2024-04-18T10:48:55.315Z,3.40
2024-04-18T10:51:22.574Z,3.80
2024-04-18T10:53:49.635Z,3.88
2024-04-18T10:56:16.742Z,4.18
2024-04-18T10:58:43.766Z,5.05
2024-04-18T11:01:10.818Z,4.65
2024-04-18T11:03:37.985Z,4.53
2024-04-18T11:06:05.233Z,5.15
2024-04-18T11:08:35.066Z,4.95
2024-04-18T11:11:04.477Z,5.68
2024-04-18T11:13:31.792Z,5.38
2024-04-18T11:15:58.771Z,5.53
2024-04-18T11:18:26.316Z,5.70
2024-04-18T11:20:54.130Z,5.80
2024-04-18T11:23:35.278Z,5.90
2024-04-18T11:26:14.073Z,5.45
2024-04-18T11:28:41.703Z,5.07
2024-04-18T11:31:08.720Z,5.65
2024-04-18T11:33:36.396Z,6.65
2024-04-18T11:36:03.803Z,6.72
2024-04-18T11:38:32.775Z,6.10
2024-04-18T11:41:01.481Z,6.55
2024-04-18T11:43:28.542Z,6.65
2024-04-18T11:45:55.965Z,5.93
2024-04-18T11:48:23.103Z,5.38
2024-04-18T11:50:50.315Z,5.60
2024-04-18T11:53:17.341Z,5.20
2024-04-18T11:55:44.332Z,4.78
2024-04-18T11:58:11.588Z,5.18
2024-04-18T12:00:38.624Z,5.70
2024-04-18T12:03:07.135Z,7.45
2024-04-18T12:05:34.142Z,7.20
2024-04-18T12:08:01.176Z,6.07
2024-04-18T12:10:28.086Z,7.30
2024-04-18T12:12:55.406Z,6.60
2024-04-18T12:15:22.374Z,5.80
2024-04-18T12:17:49.438Z,6.20
2024-04-18T12:20:20.520Z,5.72
2024-04-18T12:22:47.752Z,5.88
2024-04-18T12:25:16.719Z,5.93
2024-04-18T12:27:44.175Z,5.45
2024-04-18T12:30:11.533Z,5.55
2024-04-18T12:32:38.521Z,6.05
2024-04-18T12:35:06.118Z,6.35
2024-04-18T12:37:33.078Z,5.85
2024-04-18T12:40:01.532Z,6.00
2024-04-18T12:42:28.517Z,5.55
2024-04-18T12:44:55.520Z,5.07
2024-04-18T12:47:22.567Z,5.50
2024-04-18T12:49:49.862Z,5.03
2024-04-18T12:52:17.395Z,5.78
2024-04-18T12:54:45.524Z,5.10
2024-04-18T12:57:12.781Z,5.45
2024-04-18T12:59:39.721Z,5.18
2024-04-18T13:02:06.663Z,5.30
2024-04-18T13:04:38.823Z,4.95
2024-04-18T13:07:07.027Z,5.60
2024-04-18T13:09:34.453Z,5.20
2024-04-18T13:12:05.222Z,5.47
2024-04-18T13:14:32.315Z,5.90
2024-04-18T13:16:59.402Z,6.15
2024-04-18T13:19:26.589Z,5.10
2024-04-18T13:21:55.498Z,4.25
2024-04-18T13:24:24.063Z,4.95
2024-04-18T13:26:52.231Z,4.75
2024-04-18T13:29:26.626Z,4.47
2024-04-18T13:31:53.878Z,4.97
2024-04-18T13:34:21.826Z,5.45
2024-04-18T13:36:49.402Z,5.13
2024-04-18T13:39:16.759Z,4.50
2024-04-18T13:41:47.335Z,4.53
2024-04-18T13:44:14.337Z,3.72
2024-04-18T13:46:42.085Z,3.53
2024-04-18T13:49:09.146Z,3.17
2024-04-18T13:51:36.196Z,3.90
2024-04-18T13:54:04.382Z,3.72
2024-04-18T13:56:31.868Z,3.67
2024-04-18T13:58:59.050Z,3.45
2024-04-18T14:01:26.472Z,5.03
2024-04-18T14:03:54.129Z,3.88
2024-04-18T14:06:21.778Z,3.70
2024-04-18T14:08:49.011Z,3.72
2024-04-18T14:11:16.251Z,5.47
2024-04-18T14:13:43.382Z,3.95
2024-04-18T14:16:29.574Z,4.18
2024-04-18T14:18:58.788Z,3.92
2024-04-18T14:21:26.056Z,3.83
2024-04-18T14:23:53.512Z,4.47
2024-04-18T14:26:20.910Z,4.93
2024-04-18T14:28:48.131Z,6.65
2024-04-18T14:31:15.437Z,6.65
2024-04-18T14:33:42.776Z,4.15
2024-04-18T14:36:10.068Z,3.67
2024-04-18T14:38:38.622Z,4.10
2024-04-18T14:41:11.752Z,4.80
2024-04-18T14:43:40.921Z,4.07
2024-04-18T14:46:08.128Z,3.75
2024-04-18T14:48:37.457Z,2.97
2024-04-18T14:51:05.138Z,2.88
2024-04-18T14:53:32.200Z,2.60
2024-04-18T14:55:59.916Z,2.20
2024-04-18T14:58:27.891Z,2.72
2024-04-18T15:00:55.799Z,2.60
2024-04-18T15:03:23.911Z,2.25
2024-04-18T15:05:57.295Z,3.40
2024-04-18T15:08:25.296Z,2.53
2024-04-18T15:10:53.317Z,2.40
2024-04-18T15:13:20.641Z,2.35
2024-04-18T15:15:48.119Z,2.22
2024-04-18T15:18:15.760Z,2.35
2024-04-18T15:20:43.052Z,2.35
2024-04-18T15:23:11.619Z,2.55
2024-04-18T15:25:38.862Z,2.10
2024-04-18T15:28:06.771Z,2.17
2024-04-18T15:30:34.273Z,2.17
2024-04-18T15:33:01.702Z,2.15
2024-04-18T15:35:30.171Z,2.50
2024-04-18T15:37:57.629Z,2.40
2024-04-18T15:40:24.905Z,2.20
2024-04-18T15:42:51.976Z,2.33
2024-04-18T15:45:19.391Z,2.10
2024-04-18T15:47:46.665Z,1.77
2024-04-18T15:50:14.023Z,2.67
2024-04-18T15:52:41.420Z,2.47
2024-04-18T15:55:15.929Z,5.50
2024-04-18T15:57:48.979Z,5.07
2024-04-18T16:00:16.420Z,3.35
2024-04-18T16:02:44.920Z,3.20
2024-04-18T16:05:13.922Z,3.42
2024-04-18T16:07:42.951Z,4.95
2024-04-18T16:10:10.303Z,3.95
2024-04-18T16:12:37.718Z,4.72
2024-04-18T16:15:06.713Z,4.82
2024-04-18T16:17:34.933Z,4.07
2024-04-18T16:20:02.394Z,4.28
2024-04-18T16:22:29.794Z,4.60
2024-04-18T16:24:56.910Z,3.83
2024-04-18T16:27:24.128Z,4.80
2024-04-18T16:29:51.372Z,3.70
2024-04-18T16:32:18.514Z,4.57
2024-04-18T16:34:45.577Z,3.80
2024-04-18T16:37:15.209Z,5.93
2024-04-18T16:39:44.618Z,5.03
2024-04-18T16:42:11.864Z,4.78
2024-04-18T16:44:39.214Z,4.95
2024-04-18T16:47:06.897Z,3.70
2024-04-18T16:49:34.215Z,4.35
2024-04-18T16:52:01.546Z,6.15
2024-04-18T16:54:29.488Z,5.50
2024-04-18T16:56:57.243Z,5.07
2024-04-18T16:59:24.797Z,8.32
2024-04-18T17:01:51.832Z,7.53
2024-04-18T17:04:19.031Z,4.78
2024-04-18T17:06:48.655Z,3.80
2024-04-18T17:09:18.258Z,4.78
2024-04-18T17:11:45.813Z,3.50
2024-04-18T17:14:14.862Z,4.50
2024-04-18T17:16:43.091Z,5.35
2024-04-18T17:19:10.471Z,6.38
2024-04-18T17:21:40.047Z,4.53
2024-04-18T17:24:07.444Z,3.15
2024-04-18T17:26:34.966Z,2.80
2024-04-18T17:29:02.411Z,2.58
2024-04-18T17:31:29.786Z,2.75
2024-04-18T17:33:56.950Z,4.40
2024-04-18T17:36:24.141Z,5.70
2024-04-18T17:38:51.552Z,5.72
2024-04-18T17:41:18.842Z,3.95
2024-04-18T17:43:48.105Z,3.38
2024-04-18T17:46:15.675Z,2.60
2024-04-18T17:48:44.331Z,3.00
2024-04-18T17:51:11.924Z,3.70
2024-04-18T17:53:39.299Z,4.03
2024-04-18T17:56:06.967Z,7.03
2024-04-18T17:58:33.986Z,8.38
2024-04-18T18:01:01.310Z,5.18
2024-04-18T18:03:28.942Z,4.35
2024-04-18T18:05:56.165Z,4.35
2024-04-18T18:08:23.409Z,4.85
2024-04-18T18:10:50.563Z,5.13
2024-04-18T18:13:17.774Z,5.18
2024-04-18T18:15:45.620Z,4.55
2024-04-18T18:18:14.377Z,4.45
2024-04-18T18:20:41.571Z,4.00
2024-04-18T18:23:08.687Z,3.40
2024-04-18T18:25:35.843Z,4.20
2024-04-18T18:28:03.422Z,4.10
2024-04-18T18:30:30.623Z,4.30
2024-04-18T18:32:57.811Z,4.32
2024-04-18T18:35:24.761Z,4.30
2024-04-18T18:37:53.289Z,3.53
2024-04-18T18:40:20.567Z,3.58
2024-04-18T18:42:47.592Z,3.88
2024-04-18T18:45:14.707Z,3.67
2024-04-18T18:47:41.854Z,3.75
2024-04-18T18:50:09.189Z,3.92
2024-04-18T18:52:36.308Z,4.20
2024-04-18T18:55:03.293Z,7.53
2024-04-18T18:57:30.448Z,7.10
2024-04-18T18:59:57.735Z,7.03
2024-04-18T19:02:25.225Z,4.50
2024-04-18T19:04:52.494Z,5.03
2024-04-18T19:07:19.742Z,5.50
2024-04-18T19:09:46.983Z,4.80
2024-04-18T19:12:14.219Z,4.85
2024-04-18T19:14:41.484Z,4.97
2024-04-18T19:17:08.718Z,4.35
2024-04-18T19:19:35.861Z,4.38
2024-04-18T19:22:04.918Z,4.50
2024-04-18T19:24:31.889Z,4.82
2024-04-18T19:27:01.757Z,4.88
2024-04-18T19:29:39.844Z,5.13
2024-04-18T19:32:18.583Z,6.05
2024-04-18T19:34:46.074Z,5.75
2024-04-18T19:37:13.194Z,5.68
2024-04-18T19:39:40.995Z,5.20
2024-04-18T19:42:08.990Z,6.00
2024-04-18T19:44:36.256Z,6.38
2024-04-18T19:47:04.396Z,5.57
2024-04-18T19:49:36.182Z,5.28
2024-04-18T19:52:07.423Z,5.85
2024-04-18T19:54:36.113Z,4.00
2024-04-18T19:57:04.112Z,4.82
2024-04-18T19:59:31.131Z,4.78
2024-04-18T20:01:58.658Z,4.65
2024-04-18T20:04:26.157Z,4.65
2024-04-18T20:06:54.161Z,4.70
2024-04-18T20:09:21.655Z,4.25
2024-04-18T20:11:48.645Z,4.38
2024-04-18T20:14:15.572Z,4.85
2024-04-18T20:16:45.694Z,4.22
2024-04-18T20:19:16.462Z,4.45
2024-04-18T20:21:44.584Z,4.35
2024-04-18T20:24:13.560Z,4.25
2024-04-18T20:26:40.698Z,4.53
2024-04-18T20:29:10.477Z,4.30
2024-04-18T20:31:37.622Z,4.43
2024-04-18T20:34:04.611Z,4.38
2024-04-18T20:36:31.868Z,4.60
2024-04-18T20:38:58.981Z,5.05
2024-04-18T20:41:26.175Z,10.60
2024-04-18T20:43:53.170Z,6.18
2024-04-18T20:46:27.662Z,5.20
2024-04-18T20:48:55.299Z,5.10
2024-04-18T20:51:23.333Z,5.28
2024-04-18T20:53:50.708Z,4.93
2024-04-18T20:56:17.721Z,4.68
2024-04-18T20:58:44.661Z,4.88
2024-04-18T21:01:11.875Z,4.85
2024-04-18T21:03:39.009Z,5.15
2024-04-18T21:06:06.131Z,5.22
2024-04-18T21:08:33.977Z,5.53
2024-04-18T21:11:00.997Z,4.80
2024-04-18T21:13:27.972Z,6.05
2024-04-18T21:16:01.457Z,5.82
2024-04-18T21:18:29.052Z,7.38
2024-04-18T21:20:56.818Z,6.80
2024-04-18T21:23:23.989Z,6.22
2024-04-18T21:25:51.091Z,6.30
2024-04-18T21:28:18.028Z,5.40
2024-04-18T21:30:45.097Z,5.40
2024-04-18T21:33:12.199Z,5.63
2024-04-18T21:35:39.198Z,5.07
2024-04-18T21:38:06.099Z,5.57
2024-04-18T21:40:33.684Z,5.35
2024-04-18T21:43:04.010Z,5.50
2024-04-18T21:45:32.772Z,4.90
2024-04-18T21:48:00.177Z,4.93
2024-04-18T21:50:27.230Z,5.22
2024-04-18T21:52:54.169Z,5.53
2024-04-18T21:55:21.176Z,5.00
2024-04-18T21:57:48.150Z,5.07
2024-04-18T22:00:15.358Z,5.40
2024-04-18T22:02:42.348Z,5.20
2024-04-18T22:05:09.295Z,5.50
2024-04-18T22:07:36.205Z,4.93
2024-04-18T22:10:03.259Z,5.18
2024-04-18T22:12:31.454Z,4.90
2024-04-18T22:14:58.507Z,5.43
2024-04-18T22:17:25.437Z,5.55
2024-04-18T22:19:52.336Z,5.05
2024-04-18T22:22:19.238Z,5.45
2024-04-18T22:24:46.224Z,4.88
2024-04-18T22:27:13.223Z,5.75
2024-04-18T22:29:40.189Z,5.95
2024-04-18T22:32:07.571Z,5.78
2024-04-18T22:34:37.324Z,5.20
2024-04-18T22:37:05.062Z,5.65
2024-04-18T22:39:32.319Z,6.45
2024-04-18T22:41:59.303Z,5.85
2024-04-18T22:44:26.188Z,6.15
2024-04-18T22:46:53.154Z,6.50
2024-04-18T22:49:20.156Z,6.72
2024-04-18T22:51:47.592Z,6.68
2024-04-18T22:54:14.645Z,6.13
2024-04-18T22:56:41.567Z,6.80
2024-04-18T22:59:08.658Z,6.35
2024-04-18T23:01:35.633Z,6.88
2024-04-18T23:04:02.801Z,5.95
2024-04-18T23:06:31.511Z,6.60
2024-04-18T23:08:58.454Z,6.10
2024-04-18T23:11:25.425Z,6.22
2024-04-18T23:13:52.397Z,6.00
2024-04-18T23:16:19.315Z,6.47
2024-04-18T23:18:46.454Z,6.32
2024-04-18T23:21:13.555Z,7.10
2024-04-18T23:23:40.459Z,6.82
2024-04-18T23:26:07.390Z,6.22
2024-04-18T23:28:34.335Z,6.63
2024-04-18T23:31:01.306Z,7.10
2024-04-18T23:33:28.831Z,6.07
2024-04-18T23:35:55.978Z,6.07
2024-04-18T23:38:22.892Z,6.03
2024-04-18T23:40:50.486Z,6.43
2024-04-18T23:43:17.596Z,6.35
2024-04-18T23:45:44.751Z,6.15
2024-04-18T23:48:13.178Z,6.43
2024-04-18T23:50:40.369Z,6.10
2024-04-18T23:53:07.303Z,5.97
2024-04-18T23:55:34.226Z,6.40
2024-04-18T23:58:01.218Z,7.05
